sensor_id;sensor_type;location;lat;lon;timestamp;pressure;altitude;pressure_sealevel;temperature;humidity
29197;BME280;62796;42.654;23.316;2023-02-14T00:00:50;95954.16;;;4.93;47.42
29197;BME280;62796;42.654;23.316;2023-02-14T00:03:15;95951.47;;;4.90;47.74
29197;BME280;62796;42.654;23.316;2023-02-14T00:05:41;95955.00;;;4.90;47.91
29197;BME280;62796;42.654;23.316;2023-02-14T00:08:06;95952.94;;;4.98;47.79
29197;BME280;62796;42.654;23.316;2023-02-14T00:10:32;95952.41;;;5.07;47.47
29197;BME280;62796;42.654;23.316;2023-02-14T00:12:57;95955.16;;;5.07;47.13
29197;BME280;62796;42.654;23.316;2023-02-14T00:15:23;95951.28;;;5.04;47.31
29197;BME280;62796;42.654;23.316;2023-02-14T00:17:53;95957.53;;;5.05;47.31
29197;BME280;62796;42.654;23.316;2023-02-14T00:20:22;95944.00;;;4.90;47.72
29197;BME280;62796;42.654;23.316;2023-02-14T00:22:48;95962.88;;;4.88;47.76
29197;BME280;62796;42.654;23.316;2023-02-14T00:25:14;95961.13;;;4.75;48.18
29197;BME280;62796;42.654;23.316;2023-02-14T00:27:39;95962.56;;;4.83;48.33
29197;BME280;62796;42.654;23.316;2023-02-14T00:30:06;95966.78;;;4.87;48.30
29197;BME280;62796;42.654;23.316;2023-02-14T00:32:32;95967.09;;;4.93;48.48
29197;BME280;62796;42.654;23.316;2023-02-14T00:34:58;95958.59;;;4.84;48.75
29197;BME280;62796;42.654;23.316;2023-02-14T00:37:24;95957.63;;;4.71;49.04
29197;BME280;62796;42.654;23.316;2023-02-14T00:39:49;95959.38;;;4.58;49.40
29197;BME280;62796;42.654;23.316;2023-02-14T00:42:15;95964.38;;;4.36;50.00
29197;BME280;62796;42.654;23.316;2023-02-14T00:44:40;95953.91;;;4.54;50.01
29197;BME280;62796;42.654;23.316;2023-02-14T00:47:06;95943.06;;;4.47;49.90
29197;BME280;62796;42.654;23.316;2023-02-14T00:49:31;95953.28;;;4.43;50.00
29197;BME280;62796;42.654;23.316;2023-02-14T00:51:56;95953.00;;;4.34;50.54
29197;BME280;62796;42.654;23.316;2023-02-14T00:54:22;95937.94;;;4.15;50.53
29197;BME280;62796;42.654;23.316;2023-02-14T00:56:47;95946.31;;;4.38;50.08
29197;BME280;62796;42.654;23.316;2023-02-14T00:59:13;95937.00;;;4.29;50.18
29197;BME280;62796;42.654;23.316;2023-02-14T01:01:39;95936.38;;;4.48;49.88
29197;BME280;62796;42.654;23.316;2023-02-14T01:04:04;95938.16;;;4.62;49.46
29197;BME280;62796;42.654;23.316;2023-02-14T01:06:30;95922.28;;;4.46;49.47
29197;BME280;62796;42.654;23.316;2023-02-14T01:08:55;95924.25;;;4.45;49.57
29197;BME280;62796;42.654;23.316;2023-02-14T01:11:22;95937.84;;;4.56;49.28
29197;BME280;62796;42.654;23.316;2023-02-14T01:13:49;95930.06;;;4.51;49.15
29197;BME280;62796;42.654;23.316;2023-02-14T01:16:17;95932.16;;;4.70;49.08
29197;BME280;62796;42.654;23.316;2023-02-14T01:18:44;95929.19;;;4.58;49.15
29197;BME280;62796;42.654;23.316;2023-02-14T01:21:22;95928.72;;;4.36;49.85
29197;BME280;62796;42.654;23.316;2023-02-14T01:23:51;95921.09;;;4.47;49.37
29197;BME280;62796;42.654;23.316;2023-02-14T01:26:17;95923.44;;;4.48;49.42
29197;BME280;62796;42.654;23.316;2023-02-14T01:28:44;95903.00;;;4.53;49.24
29197;BME280;62796;42.654;23.316;2023-02-14T01:31:12;95913.81;;;4.64;48.92
29197;BME280;62796;42.654;23.316;2023-02-14T01:33:38;95913.38;;;4.38;49.79
29197;BME280;62796;42.654;23.316;2023-02-14T01:36:04;95917.03;;;4.59;49.03
29197;BME280;62796;42.654;23.316;2023-02-14T01:38:29;95912.19;;;4.66;48.96
29197;BME280;62796;42.654;23.316;2023-02-14T01:40:55;95909.16;;;4.61;49.02
29197;BME280;62796;42.654;23.316;2023-02-14T01:43:20;95905.47;;;4.44;49.00
29197;BME280;62796;42.654;23.316;2023-02-14T01:45:46;95899.25;;;4.40;49.54
29197;BME280;62796;42.654;23.316;2023-02-14T01:48:11;95888.06;;;3.97;50.30
29197;BME280;62796;42.654;23.316;2023-02-14T01:50:41;95886.75;;;4.09;50.48
29197;BME280;62796;42.654;23.316;2023-02-14T01:53:11;95876.75;;;4.22;49.98
29197;BME280;62796;42.654;23.316;2023-02-14T01:55:45;95872.56;;;4.44;49.49
29197;BME280;62796;42.654;23.316;2023-02-14T01:58:14;95881.88;;;4.50;49.08
29197;BME280;62796;42.654;23.316;2023-02-14T02:00:41;95881.97;;;4.43;49.09
29197;BME280;62796;42.654;23.316;2023-02-14T02:08:33;95886.66;;;4.69;48.81
29197;BME280;62796;42.654;23.316;2023-02-14T02:11:02;95879.56;;;4.45;49.17
29197;BME280;62796;42.654;23.316;2023-02-14T02:13:27;95883.31;;;4.58;48.82
29197;BME280;62796;42.654;23.316;2023-02-14T02:22:03;95881.81;;;4.54;48.89
29197;BME280;62796;42.654;23.316;2023-02-14T02:24:31;95881.66;;;4.64;48.76
29197;BME280;62796;42.654;23.316;2023-02-14T02:33:50;95854.72;;;4.29;49.28
29197;BME280;62796;42.654;23.316;2023-02-14T02:39:03;95843.41;;;4.27;49.92
29197;BME280;62796;42.654;23.316;2023-02-14T02:41:42;95838.84;;;4.17;49.65
29197;BME280;62796;42.654;23.316;2023-02-14T02:52:30;95843.84;;;3.91;50.63
29197;BME280;62796;42.654;23.316;2023-02-14T02:55:26;95825.69;;;3.74;50.80
29197;BME280;62796;42.654;23.316;2023-02-14T02:57:54;95836.53;;;3.85;50.92
29197;BME280;62796;42.654;23.316;2023-02-14T03:00:21;95851.09;;;4.09;50.01
29197;BME280;62796;42.654;23.316;2023-02-14T03:02:50;95839.31;;;4.12;50.07
29197;BME280;62796;42.654;23.316;2023-02-14T03:05:35;95852.13;;;4.18;49.94
29197;BME280;62796;42.654;23.316;2023-02-14T03:08:03;95843.59;;;4.13;50.30
29197;BME280;62796;42.654;23.316;2023-02-14T03:10:35;95845.72;;;4.28;49.85
29197;BME280;62796;42.654;23.316;2023-02-14T03:16:23;95832.94;;;4.45;48.98
29197;BME280;62796;42.654;23.316;2023-02-14T03:19:16;95839.16;;;4.49;49.06
29197;BME280;62796;42.654;23.316;2023-02-14T03:27:08;95827.09;;;4.43;48.87
29197;BME280;62796;42.654;23.316;2023-02-14T03:30:23;95830.44;;;4.54;48.63
29197;BME280;62796;42.654;23.316;2023-02-14T03:32:40;95808.94;;;4.26;49.31
29197;BME280;62796;42.654;23.316;2023-02-14T03:37:46;95804.63;;;4.25;48.97
29197;BME280;62796;42.654;23.316;2023-02-14T03:43:11;95818.91;;;4.39;48.81
29197;BME280;62796;42.654;23.316;2023-02-14T03:45:42;95807.53;;;4.41;48.94
29197;BME280;62796;42.654;23.316;2023-02-14T03:48:13;95807.19;;;4.39;48.54
29197;BME280;62796;42.654;23.316;2023-02-14T03:50:41;95809.09;;;4.42;48.75
29197;BME280;62796;42.654;23.316;2023-02-14T03:53:11;95811.13;;;4.38;48.58
29197;BME280;62796;42.654;23.316;2023-02-14T03:56:31;95808.66;;;4.43;48.71
29197;BME280;62796;42.654;23.316;2023-02-14T03:58:45;95797.72;;;4.17;49.04
29197;BME280;62796;42.654;23.316;2023-02-14T04:01:25;95797.91;;;4.29;48.48
29197;BME280;62796;42.654;23.316;2023-02-14T04:03:54;95780.69;;;4.29;49.05
29197;BME280;62796;42.654;23.316;2023-02-14T04:06:21;95788.00;;;4.39;48.82
29197;BME280;62796;42.654;23.316;2023-02-14T04:08:46;95784.75;;;4.44;48.73
29197;BME280;62796;42.654;23.316;2023-02-14T04:11:11;95777.72;;;4.43;48.11
29197;BME280;62796;42.654;23.316;2023-02-14T04:13:37;95793.34;;;4.46;48.30
29197;BME280;62796;42.654;23.316;2023-02-14T04:16:04;95794.13;;;4.46;48.30
29197;BME280;62796;42.654;23.316;2023-02-14T04:18:30;95773.94;;;4.33;48.05
29197;BME280;62796;42.654;23.316;2023-02-14T04:21:14;95788.91;;;4.29;48.27
29197;BME280;62796;42.654;23.316;2023-02-14T04:23:39;95792.25;;;4.40;48.43
29197;BME280;62796;42.654;23.316;2023-02-14T04:26:05;95777.84;;;4.36;48.63
29197;BME280;62796;42.654;23.316;2023-02-14T04:28:30;95787.00;;;4.26;48.18
29197;BME280;62796;42.654;23.316;2023-02-14T04:31:00;95792.84;;;4.28;48.81
29197;BME280;62796;42.654;23.316;2023-02-14T04:33:25;95790.53;;;4.26;48.50
29197;BME280;62796;42.654;23.316;2023-02-14T04:35:51;95783.72;;;4.34;48.26
29197;BME280;62796;42.654;23.316;2023-02-14T04:38:16;95781.03;;;4.31;48.20
29197;BME280;62796;42.654;23.316;2023-02-14T04:40:42;95789.56;;;4.36;48.28
29197;BME280;62796;42.654;23.316;2023-02-14T04:43:07;95789.25;;;4.31;48.42
29197;BME280;62796;42.654;23.316;2023-02-14T04:45:33;95782.03;;;4.17;48.81
29197;BME280;62796;42.654;23.316;2023-02-14T04:47:58;95763.09;;;4.00;48.96
29197;BME280;62796;42.654;23.316;2023-02-14T04:50:23;95771.03;;;4.21;48.57
29197;BME280;62796;42.654;23.316;2023-02-14T04:52:50;95760.88;;;4.18;48.85
29197;BME280;62796;42.654;23.316;2023-02-14T04:55:16;95751.34;;;4.26;47.90
29197;BME280;62796;42.654;23.316;2023-02-14T04:57:41;95764.56;;;4.31;48.24
29197;BME280;62796;42.654;23.316;2023-02-14T05:00:07;95762.13;;;4.36;48.25
29197;BME280;62796;42.654;23.316;2023-02-14T05:02:33;95754.53;;;4.47;47.33
29197;BME280;62796;42.654;23.316;2023-02-14T05:04:58;95750.22;;;4.46;47.64
29197;BME280;62796;42.654;23.316;2023-02-14T05:07:24;95763.66;;;4.41;47.81
29197;BME280;62796;42.654;23.316;2023-02-14T05:09:49;95771.41;;;4.46;47.96
29197;BME280;62796;42.654;23.316;2023-02-14T05:12:15;95767.34;;;4.54;47.61
29197;BME280;62796;42.654;23.316;2023-02-14T05:14:41;95765.81;;;4.53;47.83
29197;BME280;62796;42.654;23.316;2023-02-14T05:17:06;95771.88;;;4.41;47.45
29197;BME280;62796;42.654;23.316;2023-02-14T05:19:31;95768.66;;;4.46;47.84
29197;BME280;62796;42.654;23.316;2023-02-14T05:21:57;95772.22;;;4.43;47.82
29197;BME280;62796;42.654;23.316;2023-02-14T05:24:22;95768.31;;;4.44;47.55
29197;BME280;62796;42.654;23.316;2023-02-14T05:26:48;95766.75;;;4.43;47.59
29197;BME280;62796;42.654;23.316;2023-02-14T05:29:13;95754.78;;;4.57;47.33
29197;BME280;62796;42.654;23.316;2023-02-14T05:31:39;95764.59;;;4.54;47.69
29197;BME280;62796;42.654;23.316;2023-02-14T05:34:04;95755.66;;;4.50;47.50
29197;BME280;62796;42.654;23.316;2023-02-14T05:36:29;95758.88;;;4.45;47.26
29197;BME280;62796;42.654;23.316;2023-02-14T05:38:55;95759.34;;;4.40;47.98
29197;BME280;62796;42.654;23.316;2023-02-14T05:41:22;95758.22;;;4.37;47.75
29197;BME280;62796;42.654;23.316;2023-02-14T05:43:47;95757.44;;;4.37;47.86
29197;BME280;62796;42.654;23.316;2023-02-14T05:46:13;95764.53;;;4.34;48.12
29197;BME280;62796;42.654;23.316;2023-02-14T05:48:38;95750.47;;;4.32;48.04
29197;BME280;62796;42.654;23.316;2023-02-14T05:51:04;95733.19;;;4.35;48.06
29197;BME280;62796;42.654;23.316;2023-02-14T05:53:30;95751.59;;;4.35;47.73
29197;BME280;62796;42.654;23.316;2023-02-14T05:55:55;95753.50;;;4.38;48.32
29197;BME280;62796;42.654;23.316;2023-02-14T05:58:21;95756.25;;;4.38;47.75
29197;BME280;62796;42.654;23.316;2023-02-14T06:00:46;95739.53;;;4.29;48.14
29197;BME280;62796;42.654;23.316;2023-02-14T06:03:11;95746.47;;;4.37;48.35
29197;BME280;62796;42.654;23.316;2023-02-14T06:05:37;95751.78;;;4.47;48.16
29197;BME280;62796;42.654;23.316;2023-02-14T06:08:02;95760.56;;;4.39;48.03
29197;BME280;62796;42.654;23.316;2023-02-14T06:10:28;95761.16;;;4.50;48.08
29197;BME280;62796;42.654;23.316;2023-02-14T06:12:53;95766.88;;;4.59;47.60
29197;BME280;62796;42.654;23.316;2023-02-14T06:15:19;95768.66;;;4.69;47.54
29197;BME280;62796;42.654;23.316;2023-02-14T06:17:45;95768.06;;;4.81;46.77
29197;BME280;62796;42.654;23.316;2023-02-14T06:20:15;95766.41;;;4.87;47.04
29197;BME280;62796;42.654;23.316;2023-02-14T06:22:41;95759.50;;;4.99;46.70
29197;BME280;62796;42.654;23.316;2023-02-14T06:25:06;95755.88;;;5.06;46.35
29197;BME280;62796;42.654;23.316;2023-02-14T06:27:32;95772.28;;;5.09;46.68
29197;BME280;62796;42.654;23.316;2023-02-14T06:29:57;95770.31;;;5.10;46.66
29197;BME280;62796;42.654;23.316;2023-02-14T06:32:23;95777.44;;;5.27;46.12
29197;BME280;62796;42.654;23.316;2023-02-14T06:34:48;95779.22;;;5.37;46.29
29197;BME280;62796;42.654;23.316;2023-02-14T06:37:14;95768.25;;;5.37;45.90
29197;BME280;62796;42.654;23.316;2023-02-14T06:39:39;95745.00;;;5.22;46.03
29197;BME280;62796;42.654;23.316;2023-02-14T06:42:05;95767.41;;;5.40;45.91
29197;BME280;62796;42.654;23.316;2023-02-14T06:44:30;95770.22;;;5.36;46.36
29197;BME280;62796;42.654;23.316;2023-02-14T06:46:56;95765.28;;;5.28;46.39
29197;BME280;62796;42.654;23.316;2023-02-14T06:49:21;95768.25;;;5.37;46.24
29197;BME280;62796;42.654;23.316;2023-02-14T06:51:48;95755.13;;;5.25;46.08
29197;BME280;62796;42.654;23.316;2023-02-14T06:54:13;95747.22;;;5.27;46.10
29197;BME280;62796;42.654;23.316;2023-02-14T06:56:39;95751.53;;;5.28;46.48
29197;BME280;62796;42.654;23.316;2023-02-14T06:59:04;95758.09;;;5.34;46.31
29197;BME280;62796;42.654;23.316;2023-02-14T07:01:30;95752.44;;;5.41;46.20
29197;BME280;62796;42.654;23.316;2023-02-14T07:03:55;95756.53;;;5.33;46.53
29197;BME280;62796;42.654;23.316;2023-02-14T07:06:21;95754.69;;;5.26;47.15
29197;BME280;62796;42.654;23.316;2023-02-14T07:08:47;95752.16;;;5.16;47.39
29197;BME280;62796;42.654;23.316;2023-02-14T07:11:12;95748.06;;;5.24;47.10
29197;BME280;62796;42.654;23.316;2023-02-14T07:13:37;95732.66;;;5.30;47.08
29197;BME280;62796;42.654;23.316;2023-02-14T07:16:03;95733.72;;;5.36;46.86
29197;BME280;62796;42.654;23.316;2023-02-14T07:18:28;95746.53;;;5.23;48.03
29197;BME280;62796;42.654;23.316;2023-02-14T07:20:54;95742.38;;;5.15;47.67
29197;BME280;62796;42.654;23.316;2023-02-14T07:23:19;95751.94;;;5.26;47.71
29197;BME280;62796;42.654;23.316;2023-02-14T07:25:45;95759.06;;;5.24;48.42
29197;BME280;62796;42.654;23.316;2023-02-14T07:28:10;95750.09;;;5.20;48.27
29197;BME280;62796;42.654;23.316;2023-02-14T07:30:36;95753.56;;;5.24;48.09
29197;BME280;62796;42.654;23.316;2023-02-14T07:33:01;95763.59;;;5.34;48.17
29197;BME280;62796;42.654;23.316;2023-02-14T07:35:26;95759.63;;;5.35;48.42
29197;BME280;62796;42.654;23.316;2023-02-14T07:37:52;95748.78;;;5.28;48.77
29197;BME280;62796;42.654;23.316;2023-02-14T07:40:18;95763.22;;;5.32;48.54
29197;BME280;62796;42.654;23.316;2023-02-14T07:42:47;95765.91;;;5.35;49.00
29197;BME280;62796;42.654;23.316;2023-02-14T07:45:16;95769.78;;;5.38;48.81
29197;BME280;62796;42.654;23.316;2023-02-14T07:47:41;95750.53;;;5.38;48.45
29197;BME280;62796;42.654;23.316;2023-02-14T07:50:07;95770.94;;;5.40;49.14
29197;BME280;62796;42.654;23.316;2023-02-14T07:52:32;95765.50;;;5.37;49.30
29197;BME280;62796;42.654;23.316;2023-02-14T07:54:58;95766.75;;;5.13;50.20
29197;BME280;62796;42.654;23.316;2023-02-14T07:57:23;95767.31;;;5.24;50.52
29197;BME280;62796;42.654;23.316;2023-02-14T07:59:48;95773.81;;;5.33;50.30
29197;BME280;62796;42.654;23.316;2023-02-14T08:02:14;95773.47;;;5.31;50.46
29197;BME280;62796;42.654;23.316;2023-02-14T08:04:39;95782.44;;;5.32;51.08
29197;BME280;62796;42.654;23.316;2023-02-14T08:07:04;95790.69;;;5.32;51.04
29197;BME280;62796;42.654;23.316;2023-02-14T08:09:30;95785.63;;;5.30;51.26
29197;BME280;62796;42.654;23.316;2023-02-14T08:11:56;95792.03;;;5.24;51.77
29197;BME280;62796;42.654;23.316;2023-02-14T08:14:42;95777.09;;;5.25;51.56
29197;BME280;62796;42.654;23.316;2023-02-14T08:17:08;95778.34;;;5.20;51.83
29197;BME280;62796;42.654;23.316;2023-02-14T08:19:38;95789.63;;;5.26;51.78
29197;BME280;62796;42.654;23.316;2023-02-14T08:22:04;95791.69;;;5.22;51.88
29197;BME280;62796;42.654;23.316;2023-02-14T08:24:31;95799.94;;;5.22;52.09
29197;BME280;62796;42.654;23.316;2023-02-14T08:26:56;95800.09;;;5.11;52.08
29197;BME280;62796;42.654;23.316;2023-02-14T08:29:22;95804.13;;;5.07;52.28
29197;BME280;62796;42.654;23.316;2023-02-14T08:31:47;95796.94;;;5.13;51.89
29197;BME280;62796;42.654;23.316;2023-02-14T08:34:14;95793.84;;;5.11;52.39
29197;BME280;62796;42.654;23.316;2023-02-14T08:36:40;95779.13;;;5.01;52.53
29197;BME280;62796;42.654;23.316;2023-02-14T08:39:06;95785.16;;;4.92;52.50
29197;BME280;62796;42.654;23.316;2023-02-14T08:41:32;95789.66;;;5.02;52.94
29197;BME280;62796;42.654;23.316;2023-02-14T08:43:58;95787.63;;;5.07;52.77
29197;BME280;62796;42.654;23.316;2023-02-14T08:46:24;95791.50;;;5.09;52.89
29197;BME280;62796;42.654;23.316;2023-02-14T08:48:49;95808.28;;;5.15;52.59
29197;BME280;62796;42.654;23.316;2023-02-14T08:51:16;95799.47;;;5.03;53.00
29197;BME280;62796;42.654;23.316;2023-02-14T08:53:42;95801.13;;;4.97;53.49
29197;BME280;62796;42.654;23.316;2023-02-14T08:56:10;95803.38;;;5.02;53.77
29197;BME280;62796;42.654;23.316;2023-02-14T08:58:36;95798.72;;;4.99;53.37
29197;BME280;62796;42.654;23.316;2023-02-14T09:01:29;95803.22;;;4.90;54.32
29197;BME280;62796;42.654;23.316;2023-02-14T09:03:54;95794.22;;;4.89;54.15
29197;BME280;62796;42.654;23.316;2023-02-14T09:06:21;95805.78;;;5.00;53.75
29197;BME280;62796;42.654;23.316;2023-02-14T09:08:46;95786.28;;;4.95;54.23
29197;BME280;62796;42.654;23.316;2023-02-14T09:11:17;95774.88;;;4.96;54.06
29197;BME280;62796;42.654;23.316;2023-02-14T09:13:44;95794.69;;;5.08;53.73
29197;BME280;62796;42.654;23.316;2023-02-14T09:16:12;95783.59;;;4.91;54.09
29197;BME280;62796;42.654;23.316;2023-02-14T09:18:38;95785.38;;;5.01;53.46
29197;BME280;62796;42.654;23.316;2023-02-14T09:21:08;95771.34;;;4.96;53.84
29197;BME280;62796;42.654;23.316;2023-02-14T09:23:34;95767.47;;;4.93;54.38
29197;BME280;62796;42.654;23.316;2023-02-14T09:26:01;95767.59;;;4.86;54.29
29197;BME280;62796;42.654;23.316;2023-02-14T09:28:28;95776.97;;;4.89;53.87
29197;BME280;62796;42.654;23.316;2023-02-14T09:30:53;95774.09;;;4.96;54.14
29197;BME280;62796;42.654;23.316;2023-02-14T09:33:18;95773.09;;;4.86;54.06
29197;BME280;62796;42.654;23.316;2023-02-14T09:35:44;95774.53;;;4.94;53.65
29197;BME280;62796;42.654;23.316;2023-02-14T09:38:28;95784.31;;;4.95;53.88
29197;BME280;62796;42.654;23.316;2023-02-14T09:40:54;95778.97;;;5.08;53.08
29197;BME280;62796;42.654;23.316;2023-02-14T09:44:01;95775.47;;;5.08;53.51
29197;BME280;62796;42.654;23.316;2023-02-14T09:46:29;95776.53;;;5.14;53.24
29197;BME280;62796;42.654;23.316;2023-02-14T09:49:01;95752.28;;;5.09;52.67
29197;BME280;62796;42.654;23.316;2023-02-14T09:51:29;95761.06;;;5.00;52.70
29197;BME280;62796;42.654;23.316;2023-02-14T09:54:11;95746.72;;;4.92;52.90
29197;BME280;62796;42.654;23.316;2023-02-14T09:56:49;95761.84;;;5.00;53.13
29197;BME280;62796;42.654;23.316;2023-02-14T09:59:34;95758.03;;;4.94;52.81
29197;BME280;62796;42.654;23.316;2023-02-14T10:10:20;95757.56;;;4.76;52.97
29197;BME280;62796;42.654;23.316;2023-02-14T10:15:44;95745.78;;;4.99;52.55
29197;BME280;62796;42.654;23.316;2023-02-14T10:18:22;95746.84;;;5.05;52.04
29197;BME280;62796;42.654;23.316;2023-02-14T10:20:57;95743.59;;;5.14;51.76
29197;BME280;62796;42.654;23.316;2023-02-14T10:28:45;95746.78;;;5.09;51.47
29197;BME280;62796;42.654;23.316;2023-02-14T10:36:42;95732.66;;;5.10;51.44
29197;BME280;62796;42.654;23.316;2023-02-14T10:44:59;95742.53;;;5.08;51.03
29197;BME280;62796;42.654;23.316;2023-02-14T10:55:49;95731.09;;;4.89;51.44
29197;BME280;62796;42.654;23.316;2023-02-14T10:58:18;95725.34;;;4.80;51.55
29197;BME280;62796;42.654;23.316;2023-02-14T11:00:59;95717.59;;;4.75;52.00
29197;BME280;62796;42.654;23.316;2023-02-14T11:03:27;95724.59;;;4.80;51.76
29197;BME280;62796;42.654;23.316;2023-02-14T11:05:52;95724.16;;;4.81;51.94
29197;BME280;62796;42.654;23.316;2023-02-14T11:08:28;95725.09;;;4.94;51.73
29197;BME280;62796;42.654;23.316;2023-02-14T11:11:02;95728.06;;;5.03;51.62
29197;BME280;62796;42.654;23.316;2023-02-14T11:16:04;95726.31;;;5.13;51.18
29197;BME280;62796;42.654;23.316;2023-02-14T11:18:31;95719.53;;;4.98;50.57
29197;BME280;62796;42.654;23.316;2023-02-14T11:21:15;95714.94;;;4.91;50.81
29197;BME280;62796;42.654;23.316;2023-02-14T11:23:49;95725.03;;;4.98;50.57
29197;BME280;62796;42.654;23.316;2023-02-14T11:26:25;95715.75;;;4.92;50.82
29197;BME280;62796;42.654;23.316;2023-02-14T11:28:59;95722.34;;;4.94;50.68
29197;BME280;62796;42.654;23.316;2023-02-14T11:31:34;95706.28;;;4.93;51.07
29197;BME280;62796;42.654;23.316;2023-02-14T11:34:03;95707.13;;;4.90;50.75
29197;BME280;62796;42.654;23.316;2023-02-14T11:36:30;95695.50;;;4.82;50.76
29197;BME280;62796;42.654;23.316;2023-02-14T11:39:10;95698.41;;;4.95;50.62
29197;BME280;62796;42.654;23.316;2023-02-14T11:41:50;95705.88;;;4.94;50.63
29197;BME280;62796;42.654;23.316;2023-02-14T11:44:20;95697.03;;;5.07;50.26
29197;BME280;62796;42.654;23.316;2023-02-14T11:46:53;95703.06;;;4.98;49.55
29197;BME280;62796;42.654;23.316;2023-02-14T11:49:29;95688.06;;;5.02;49.01
29197;BME280;62796;42.654;23.316;2023-02-14T11:51:57;95681.94;;;4.95;49.20
29197;BME280;62796;42.654;23.316;2023-02-14T11:54:33;95687.22;;;5.06;49.39
29197;BME280;62796;42.654;23.316;2023-02-14T11:57:10;95685.53;;;5.12;48.88
29197;BME280;62796;42.654;23.316;2023-02-14T11:59:44;95678.00;;;5.16;49.16
29197;BME280;62796;42.654;23.316;2023-02-14T12:04:51;95669.28;;;5.21;48.71
29197;BME280;62796;42.654;23.316;2023-02-14T12:07:32;95655.53;;;5.21;48.36
29197;BME280;62796;42.654;23.316;2023-02-14T12:20:57;95672.72;;;5.25;48.70
29197;BME280;62796;42.654;23.316;2023-02-14T12:26:10;95648.78;;;5.25;48.28
29197;BME280;62796;42.654;23.316;2023-02-14T12:29:05;95663.38;;;5.22;48.59
29197;BME280;62796;42.654;23.316;2023-02-14T12:31:28;95653.00;;;5.30;48.64
29197;BME280;62796;42.654;23.316;2023-02-14T12:33:54;95654.56;;;5.31;48.46
29197;BME280;62796;42.654;23.316;2023-02-14T12:57:37;95652.00;;;5.40;48.69
29197;BME280;62796;42.654;23.316;2023-02-14T13:08:49;95664.97;;;5.75;48.39
29197;BME280;62796;42.654;23.316;2023-02-14T13:16:55;95640.16;;;5.79;48.43
29197;BME280;62796;42.654;23.316;2023-02-14T13:22:03;95635.06;;;5.61;49.26
29197;BME280;62796;42.654;23.316;2023-02-14T13:24:58;95638.16;;;5.63;49.10
29197;BME280;62796;42.654;23.316;2023-02-14T13:27:27;95636.59;;;5.62;49.30
29197;BME280;62796;42.654;23.316;2023-02-14T13:29:57;95636.66;;;5.58;49.32
29197;BME280;62796;42.654;23.316;2023-02-14T13:32:27;95637.16;;;5.73;49.38
29197;BME280;62796;42.654;23.316;2023-02-14T13:34:56;95638.81;;;5.87;48.78
29197;BME280;62796;42.654;23.316;2023-02-14T13:37:24;95635.59;;;5.72;49.31
29197;BME280;62796;42.654;23.316;2023-02-14T13:39:54;95622.63;;;5.73;49.00
29197;BME280;62796;42.654;23.316;2023-02-14T13:48:19;95628.25;;;5.85;49.14
29197;BME280;62796;42.654;23.316;2023-02-14T13:50:57;95630.59;;;5.83;49.33
29197;BME280;62796;42.654;23.316;2023-02-14T13:53:44;95628.84;;;5.93;49.14
29197;BME280;62796;42.654;23.316;2023-02-14T13:58:57;95629.31;;;5.72;49.28
29197;BME280;62796;42.654;23.316;2023-02-14T14:04:00;95650.97;;;5.70;49.78
29197;BME280;62796;42.654;23.316;2023-02-14T14:06:26;95652.47;;;5.90;49.21
29197;BME280;62796;42.654;23.316;2023-02-14T14:08:53;95640.81;;;5.83;48.97
29197;BME280;62796;42.654;23.316;2023-02-14T14:18:54;95642.34;;;5.87;48.98
29197;BME280;62796;42.654;23.316;2023-02-14T14:21:33;95645.38;;;5.73;49.34
29197;BME280;62796;42.654;23.316;2023-02-14T14:26:48;95640.16;;;5.79;49.24
29197;BME280;62796;42.654;23.316;2023-02-14T14:31:47;95644.75;;;5.85;49.08
29197;BME280;62796;42.654;23.316;2023-02-14T14:34:18;95637.34;;;5.82;49.10
29197;BME280;62796;42.654;23.316;2023-02-14T14:36:44;95629.84;;;5.83;49.15
29197;BME280;62796;42.654;23.316;2023-02-14T14:39:10;95609.91;;;5.79;49.30
29197;BME280;62796;42.654;23.316;2023-02-14T14:41:38;95614.97;;;5.80;49.39
29197;BME280;62796;42.654;23.316;2023-02-14T14:44:04;95602.44;;;5.79;49.29
29197;BME280;62796;42.654;23.316;2023-02-14T14:46:31;95612.09;;;5.87;49.36
29197;BME280;62796;42.654;23.316;2023-02-14T14:48:56;95602.09;;;5.77;49.60
29197;BME280;62796;42.654;23.316;2023-02-14T14:51:32;95623.09;;;5.68;49.35
29197;BME280;62796;42.654;23.316;2023-02-14T14:54:05;95622.25;;;5.71;49.38
29197;BME280;62796;42.654;23.316;2023-02-14T14:56:58;95618.38;;;5.68;49.68
29197;BME280;62796;42.654;23.316;2023-02-14T14:59:32;95619.25;;;5.65;49.46
29197;BME280;62796;42.654;23.316;2023-02-14T15:02:03;95628.72;;;5.80;49.28
29197;BME280;62796;42.654;23.316;2023-02-14T15:04:33;95625.31;;;5.92;49.02
29197;BME280;62796;42.654;23.316;2023-02-14T15:07:40;95619.56;;;5.87;49.14
29197;BME280;62796;42.654;23.316;2023-02-14T15:10:22;95626.66;;;5.84;49.06
29197;BME280;62796;42.654;23.316;2023-02-14T15:12:50;95625.25;;;5.96;49.02
29197;BME280;62796;42.654;23.316;2023-02-14T15:15:34;95625.16;;;5.99;48.75
29197;BME280;62796;42.654;23.316;2023-02-14T15:18:06;95626.34;;;5.98;48.97
29197;BME280;62796;42.654;23.316;2023-02-14T15:20:32;95634.28;;;5.96;48.61
29197;BME280;62796;42.654;23.316;2023-02-14T15:22:57;95638.22;;;5.95;48.79
29197;BME280;62796;42.654;23.316;2023-02-14T15:25:30;95646.97;;;5.90;48.84
29197;BME280;62796;42.654;23.316;2023-02-14T15:27:56;95639.25;;;5.85;49.05
29197;BME280;62796;42.654;23.316;2023-02-14T15:30:30;95640.78;;;5.86;48.92
29197;BME280;62796;42.654;23.316;2023-02-14T15:33:00;95651.97;;;5.95;48.84
29197;BME280;62796;42.654;23.316;2023-02-14T15:35:32;95644.41;;;5.99;48.42
29197;BME280;62796;42.654;23.316;2023-02-14T15:38:01;95642.94;;;5.95;48.62
29197;BME280;62796;42.654;23.316;2023-02-14T15:40:28;95634.59;;;5.98;48.97
29197;BME280;62796;42.654;23.316;2023-02-14T15:42:57;95653.50;;;5.96;48.47
29197;BME280;62796;42.654;23.316;2023-02-14T15:47:56;95629.81;;;6.02;48.22
29197;BME280;62796;42.654;23.316;2023-02-14T15:50:28;95639.00;;;5.96;48.24
29197;BME280;62796;42.654;23.316;2023-02-14T15:53:05;95633.50;;;5.96;48.41